Drummond Island, MI

7:26 AM EDT on May 23, 2018 (GMT -0400)
Drummond Island

Weather History for KDRM - August, 2013

Change the Weather History Date:

Sunday, August 18, 2013

  Actual Average (KCIU) Record (KCIU)
Temperature  
Mean Temperature 66 °F -  
Max Temperature 81 °F 74 °F 84 °F (1993)
Min Temperature 52 °F 51 °F 35 °F (1981)
Cooling Degree Days 2    
Growing Degree Days 16 (Base 50)    
Moisture  
Dew Point 54 °F    
Average Humidity 69    
Maximum Humidity 100    
Minimum Humidity 35    
Precipitation  
Precipitation 0.00 in - - ()
Sea Level Pressure  
Sea Level Pressure 30.15 in    
Wind  
Wind Speed 2 mph (SW)    
Max Wind Speed 10 mph    
Max Gust Speed 17 mph    
Visibility 9 miles    
Events      
Averages and records for this station are not official NWS values.
T = Trace of Precipitation, MM = Missing Value Source: NWS Daily Summary

Daily Weather History Graph

Daily Weather History Graph

Search for Another Location

Airport or City:

Astronomy

Aug. 18, 2013 Rise Set
Actual Time 6:38 AM EDT 8:38 PM EDT
Civil Twilight 6:06 AM EDT 9:10 PM EDT
Nautical Twilight 5:26 AM EDT 9:49 PM EDT
Astronomical Twilight 4:42 AM EDT 10:33 PM EDT
Moon 6:46 PM EDT (8/18) 3:42 AM EDT (8/18)
Length of Visible Light 15h 04m
Length of Day
13h 59m
Waxing Gibbous, 92% of the Moon is Illuminated
Aug 18
Waxing Gibbous
Aug 20
Full
Aug 28
Last Quarter
Sep 5
New
Sep 12
First Quarter

Hourly Weather History & Observations

Time (EDT) Temp. Dew Point Humidity Pressure Visibility Wind Dir Wind Speed Gust Speed Precip Events Conditions
12:15 AM 58.1 °F 56.8 °F 96% 30.18 in 10.0 mi Calm Calm - N/A   Clear
12:35 AM 56.8 °F 56.1 °F 97% 30.18 in 5.0 mi Calm Calm - N/A   Clear
12:55 AM 56.5 °F 55.9 °F 98% 30.18 in 5.0 mi Calm Calm - N/A   Clear
1:15 AM 56.3 °F 55.8 °F 98% 30.18 in 7.0 mi Calm Calm - N/A   Clear
1:35 AM 57.0 °F 56.5 °F 98% 30.18 in 10.0 mi Calm Calm - N/A   Clear
1:55 AM 57.0 °F 56.5 °F 98% 30.18 in 10.0 mi Calm Calm - N/A   Clear
2:15 AM 57.0 °F 56.3 °F 97% 30.17 in 10.0 mi Calm Calm - N/A   Clear
2:35 AM 55.9 °F 55.2 °F 97% 30.18 in 7.0 mi Calm Calm - N/A   Clear
2:55 AM 57.4 °F 56.8 °F 98% 30.18 in 10.0 mi Calm Calm - N/A   Clear
3:15 AM 56.1 °F 55.8 °F 99% 30.18 in 2.5 mi Calm Calm - N/A   Clear
3:35 AM 54.9 °F 54.5 °F 99% 30.18 in 1.0 mi Calm Calm - N/A   Mist
3:55 AM 55.6 °F 55.6 °F 100% 30.18 in 2.0 mi Calm Calm - N/A   Clear
4:15 AM 53.6 °F 53.6 °F 100% 30.18 in 1.0 mi Calm Calm - N/A   Mist
4:35 AM 54.3 °F 54.3 °F 100% 30.18 in 4.0 mi Calm Calm - N/A   Clear
4:55 AM 54.1 °F 54.1 °F 100% 30.18 in 1.2 mi Calm Calm - N/A   Mist
5:14 AM 53.4 °F 53.4 °F 100% 30.18 in 3.0 mi Calm Calm - N/A   Mist
5:35 AM 53.6 °F 53.6 °F 100% 30.18 in 1.2 mi Calm Calm - N/A   Mist
5:55 AM 52.7 °F 52.7 °F 100% 30.18 in 4.0 mi Calm Calm - N/A   Clear
6:15 AM 53.2 °F 53.2 °F 100% 30.18 in 7.0 mi Calm Calm - N/A   Clear
6:35 AM 53.8 °F 53.8 °F 100% 30.18 in 10.0 mi Calm Calm - N/A   Clear
6:55 AM 55.4 °F 55.4 °F 100% 30.19 in 10.0 mi Calm Calm - N/A   Clear
7:15 AM 54.5 °F 54.3 °F 99% 30.19 in 7.0 mi Calm Calm - N/A   Mostly Cloudy
7:35 AM 60.8 °F 59.5 °F 96% 30.19 in 10.0 mi Calm Calm - N/A   Overcast
7:55 AM 62.2 °F 58.3 °F 87% 30.19 in 10.0 mi SSW 4.6 mph - N/A   Mostly Cloudy
8:15 AM 63.9 °F 57.9 °F 81% 30.19 in 10.0 mi SW 3.5 mph - N/A   Mostly Cloudy
8:35 AM 65.3 °F 56.3 °F 73% 30.20 in 10.0 mi WSW 3.5 mph - N/A   Overcast
8:55 AM 65.3 °F 54.7 °F 68% 30.20 in 10.0 mi WSW 3.5 mph - N/A   Scattered Clouds
9:15 AM 65.5 °F 55.4 °F 70% 30.20 in 10.0 mi SW 5.8 mph - N/A   Clear
9:35 AM 67.5 °F 55.2 °F 65% 30.20 in 10.0 mi SW 6.9 mph - N/A   Clear
9:55 AM 69.4 °F 54.7 °F 59% 30.19 in 10.0 mi WSW 5.8 mph - N/A   Clear
10:15 AM 70.2 °F 54.7 °F 58% 30.19 in 10.0 mi SW 8.1 mph - N/A   Clear
10:34 AM 69.8 °F 54.5 °F 58% 30.19 in 10.0 mi SW 5.8 mph - N/A   Clear
10:55 AM 71.8 °F 54.5 °F 54% 30.19 in 10.0 mi WSW 3.5 mph - N/A   Clear
11:15 AM 72.7 °F 55.0 °F 54% 30.19 in 10.0 mi SW 5.8 mph - N/A   Clear
11:35 AM 73.4 °F 54.0 °F 50% 30.19 in 10.0 mi SW 10.4 mph - N/A   Clear
11:55 AM 74.7 °F 52.9 °F 46% 30.18 in 10.0 mi WSW 5.8 mph 17.3 mph N/A   Clear
12:15 PM 75.2 °F 51.4 °F 43% 30.18 in 10.0 mi West 9.2 mph - N/A   Clear
12:35 PM 75.9 °F 51.4 °F 42% 30.17 in 10.0 mi SW 8.1 mph - N/A   Clear
12:55 PM 77.0 °F 51.6 °F 41% 30.17 in 10.0 mi WSW 8.1 mph 17.3 mph N/A   Clear
1:15 PM 77.4 °F 52.7 °F 42% 30.16 in 10.0 mi WSW 8.1 mph - N/A   Clear
1:35 PM 78.4 °F 52.3 °F 40% 30.15 in 10.0 mi WSW 8.1 mph - N/A   Clear
1:55 PM 79.9 °F 53.6 °F 40% 30.15 in 10.0 mi WSW 6.9 mph - N/A   Clear
2:15 PM 80.4 °F 52.5 °F 38% 30.15 in 10.0 mi WSW 8.1 mph - N/A   Clear
2:35 PM 80.2 °F 51.6 °F 37% 30.14 in 10.0 mi WSW 8.1 mph - N/A   Clear
2:55 PM 80.8 °F 51.3 °F 36% 30.14 in 10.0 mi WSW 5.8 mph - N/A   Clear
3:14 PM 81.5 °F 51.1 °F 35% 30.14 in 10.0 mi West 4.6 mph - N/A   Clear
3:35 PM 80.8 °F 52.2 °F 37% 30.13 in 10.0 mi WSW 8.1 mph - N/A   Clear
3:55 PM 81.0 °F 52.0 °F 36% 30.13 in 10.0 mi SW 9.2 mph - N/A   Clear
4:15 PM 80.6 °F 50.4 °F 35% 30.13 in 10.0 mi West 8.1 mph - N/A   Clear
4:35 PM 80.2 °F 51.8 °F 37% 30.12 in 10.0 mi SW 4.6 mph - N/A   Clear
4:55 PM 81.0 °F 51.6 °F 36% 30.11 in 10.0 mi West 8.1 mph - N/A   Clear
5:15 PM 79.9 °F 52.2 °F 38% 30.11 in 10.0 mi NW 4.6 mph - N/A   Clear
5:35 PM 79.7 °F 50.9 °F 37% 30.10 in 10.0 mi WNW 4.6 mph - N/A   Clear
5:55 PM 79.0 °F 50.7 °F 37% 30.10 in 10.0 mi WNW 4.6 mph - N/A   Clear
6:15 PM 78.6 °F 50.2 °F 37% 30.10 in 10.0 mi WNW 3.5 mph - N/A   Clear
6:35 PM 78.1 °F 50.4 °F 38% 30.10 in 10.0 mi Calm Calm - N/A   Clear
6:54 PM 77.4 °F 51.4 °F 40% 30.10 in 10.0 mi Calm Calm - N/A   Clear
7:15 PM 72.1 °F 55.4 °F 56% 30.10 in 10.0 mi SSE 4.6 mph - N/A   Clear
7:35 PM 70.0 °F 55.0 °F 59% 30.09 in 10.0 mi SSE 3.5 mph - N/A   Clear
7:55 PM 68.5 °F 54.5 °F 61% 30.09 in 10.0 mi SSE 3.5 mph - N/A   Clear
8:15 PM 66.9 °F 54.7 °F 65% 30.09 in 10.0 mi SSE 3.5 mph - N/A   Clear
8:34 PM 65.7 °F 54.5 °F 67% 30.08 in 10.0 mi South 3.5 mph - N/A   Clear
8:55 PM 64.4 °F 55.0 °F 72% 30.08 in 10.0 mi Calm Calm - N/A   Clear
9:14 PM 63.0 °F 55.2 °F 76% 30.08 in 10.0 mi Calm Calm - N/A   Clear
9:35 PM 63.0 °F 55.6 °F 77% 30.08 in 10.0 mi Calm Calm - N/A   Clear
9:54 PM 61.7 °F 55.2 °F 79% 30.08 in 10.0 mi Calm Calm - N/A   Clear
10:15 PM 61.7 °F 56.1 °F 82% 30.08 in 10.0 mi SSW 3.5 mph - N/A   Clear
10:35 PM 61.9 °F 56.1 °F 81% 30.08 in 10.0 mi Calm Calm - N/A   Clear
10:55 PM 61.5 °F 55.9 °F 82% 30.07 in 10.0 mi Calm Calm - N/A   Clear
11:15 PM 63.7 °F 55.8 °F 75% 30.07 in 10.0 mi Calm Calm - N/A   Clear
11:35 PM 62.1 °F 55.4 °F 79% 30.07 in 10.0 mi Calm Calm - N/A   Clear
11:55 PM 62.8 °F 55.0 °F 76% 30.07 in 10.0 mi Calm Calm - N/A   Clear